Marmeleiro, Brazil
Current Conditions -  °F | °C
As of 8:00 PM on Sunday 21 Dec 2014 (Local Time) from SBCH Reporting Station
Overcast Overcast  
Wind Chill: 68°   Ceiling: 10000
Heat Index: 68°   Visibility: 6mi
Dew Point: 66°   Wind: 7mph
Humidity: 94%   Direction: 50°NE
Pressure: 29.68"   Gusts: NA
Location:  26.15°S, 53.03°W
Report Text: SBCH 212200Z 05006KT 9999 FEW006 SCT025 OVC100 20/19 Q1005
Loading
Personal Weather Stations






























Interactive Weather Map New forecast layout! Learn more

10-Day Weather Forecast

Advertisements
Track Severe Weather on mobile